sensor_id;sensor_type;location;lat;lon;timestamp;temperature;humidity
12520;DHT22;6325;49.540;8.364;2022-11-15T00:02:26;11.30;99.90
12520;DHT22;6325;49.540;8.364;2022-11-15T00:04:53;11.70;99.90
12520;DHT22;6325;49.540;8.364;2022-11-15T00:07:20;11.30;99.90
12520;DHT22;6325;49.540;8.364;2022-11-15T00:09:47;11.90;99.90
12520;DHT22;6325;49.540;8.364;2022-11-15T00:12:14;11.50;99.90
12520;DHT22;6325;49.540;8.364;2022-11-15T00:14:41;11.70;99.90
12520;DHT22;6325;49.540;8.364;2022-11-15T00:17:08;11.50;99.90
12520;DHT22;6325;49.540;8.364;2022-11-15T00:19:36;11.50;99.90
12520;DHT22;6325;49.540;8.364;2022-11-15T00:22:03;11.70;99.90
12520;DHT22;6325;49.540;8.364;2022-11-15T00:24:30;11.50;99.90
12520;DHT22;6325;49.540;8.364;2022-11-15T00:26:57;11.50;99.90
12520;DHT22;6325;49.540;8.364;2022-11-15T00:29:24;11.60;99.90
12520;DHT22;6325;49.540;8.364;2022-11-15T00:31:52;11.60;99.90
12520;DHT22;6325;49.540;8.364;2022-11-15T00:34:19;11.30;99.90
12520;DHT22;6325;49.540;8.364;2022-11-15T00:36:47;11.30;99.90
12520;DHT22;6325;49.540;8.364;2022-11-15T00:39:14;11.50;99.90
12520;DHT22;6325;49.540;8.364;2022-11-15T00:41:41;11.50;99.90
12520;DHT22;6325;49.540;8.364;2022-11-15T00:44:08;11.20;99.90
12520;DHT22;6325;49.540;8.364;2022-11-15T00:46:35;11.20;99.90
12520;DHT22;6325;49.540;8.364;2022-11-15T00:49:02;10.90;99.90
12520;DHT22;6325;49.540;8.364;2022-11-15T00:51:31;11.20;99.90
12520;DHT22;6325;49.540;8.364;2022-11-15T00:53:59;11.30;99.90
12520;DHT22;6325;49.540;8.364;2022-11-15T00:56:26;11.30;99.90
12520;DHT22;6325;49.540;8.364;2022-11-15T00:58:53;11.40;99.90
12520;DHT22;6325;49.540;8.364;2022-11-15T01:01:20;11.10;99.90
12520;DHT22;6325;49.540;8.364;2022-11-15T01:03:47;11.60;99.90
12520;DHT22;6325;49.540;8.364;2022-11-15T01:06:14;11.30;99.90
12520;DHT22;6325;49.540;8.364;2022-11-15T01:08:41;11.00;99.90
12520;DHT22;6325;49.540;8.364;2022-11-15T01:11:11;11.00;99.90
12520;DHT22;6325;49.540;8.364;2022-11-15T01:13:39;11.40;99.90
12520;DHT22;6325;49.540;8.364;2022-11-15T01:16:08;10.80;99.90
12520;DHT22;6325;49.540;8.364;2022-11-15T01:18:35;11.40;99.90
12520;DHT22;6325;49.540;8.364;2022-11-15T01:21:08;10.60;99.90
12520;DHT22;6325;49.540;8.364;2022-11-15T01:23:35;11.00;99.90
12520;DHT22;6325;49.540;8.364;2022-11-15T01:26:04;11.00;99.90
12520;DHT22;6325;49.540;8.364;2022-11-15T01:28:34;11.20;99.90
12520;DHT22;6325;49.540;8.364;2022-11-15T01:31:02;11.00;99.90
12520;DHT22;6325;49.540;8.364;2022-11-15T01:33:30;11.10;99.90
12520;DHT22;6325;49.540;8.364;2022-11-15T01:35:57;11.70;99.90
12520;DHT22;6325;49.540;8.364;2022-11-15T01:38:24;11.60;99.90
12520;DHT22;6325;49.540;8.364;2022-11-15T01:40:50;11.50;99.90
12520;DHT22;6325;49.540;8.364;2022-11-15T01:43:22;11.40;99.90
12520;DHT22;6325;49.540;8.364;2022-11-15T01:45:54;11.70;99.90
12520;DHT22;6325;49.540;8.364;2022-11-15T01:48:27;11.40;99.90
12520;DHT22;6325;49.540;8.364;2022-11-15T01:50:54;10.70;99.90
12520;DHT22;6325;49.540;8.364;2022-11-15T01:53:24;11.80;99.90
12520;DHT22;6325;49.540;8.364;2022-11-15T01:55:51;11.30;99.90
12520;DHT22;6325;49.540;8.364;2022-11-15T01:58:19;11.40;99.90
12520;DHT22;6325;49.540;8.364;2022-11-15T02:00:46;11.70;99.90
12520;DHT22;6325;49.540;8.364;2022-11-15T02:03:17;11.30;99.90
12520;DHT22;6325;49.540;8.364;2022-11-15T02:05:44;11.70;99.90
12520;DHT22;6325;49.540;8.364;2022-11-15T02:08:11;11.90;99.90
12520;DHT22;6325;49.540;8.364;2022-11-15T02:10:45;11.40;99.90
12520;DHT22;6325;49.540;8.364;2022-11-15T02:13:12;11.40;99.90
12520;DHT22;6325;49.540;8.364;2022-11-15T02:15:51;11.30;99.90
12520;DHT22;6325;49.540;8.364;2022-11-15T02:18:26;12.00;99.90
12520;DHT22;6325;49.540;8.364;2022-11-15T02:21:11;11.90;99.90
12520;DHT22;6325;49.540;8.364;2022-11-15T02:24:05;11.70;99.90
12520;DHT22;6325;49.540;8.364;2022-11-15T02:27:02;11.30;99.90
12520;DHT22;6325;49.540;8.364;2022-11-15T02:29:46;10.80;99.90
12520;DHT22;6325;49.540;8.364;2022-11-15T02:32:21;11.30;99.90
12520;DHT22;6325;49.540;8.364;2022-11-15T02:34:54;11.20;99.90
12520;DHT22;6325;49.540;8.364;2022-11-15T02:37:32;10.90;99.90
12520;DHT22;6325;49.540;8.364;2022-11-15T02:40:11;11.40;99.90
12520;DHT22;6325;49.540;8.364;2022-11-15T02:42:43;11.00;99.90
12520;DHT22;6325;49.540;8.364;2022-11-15T02:45:32;11.10;99.90
12520;DHT22;6325;49.540;8.364;2022-11-15T02:48:04;11.30;99.90
12520;DHT22;6325;49.540;8.364;2022-11-15T02:50:33;10.90;99.90
12520;DHT22;6325;49.540;8.364;2022-11-15T02:53:00;11.00;99.90
12520;DHT22;6325;49.540;8.364;2022-11-15T02:55:29;11.60;99.90
12520;DHT22;6325;49.540;8.364;2022-11-15T02:58:09;11.30;99.90
12520;DHT22;6325;49.540;8.364;2022-11-15T03:00:47;11.10;99.90
12520;DHT22;6325;49.540;8.364;2022-11-15T03:03:38;11.60;99.90
12520;DHT22;6325;49.540;8.364;2022-11-15T03:06:16;11.00;99.90
12520;DHT22;6325;49.540;8.364;2022-11-15T03:08:53;11.50;99.90
12520;DHT22;6325;49.540;8.364;2022-11-15T03:11:23;11.40;99.90
12520;DHT22;6325;49.540;8.364;2022-11-15T03:13:56;11.10;99.90
12520;DHT22;6325;49.540;8.364;2022-11-15T03:16:27;11.60;99.90
12520;DHT22;6325;49.540;8.364;2022-11-15T03:19:02;10.70;99.90
12520;DHT22;6325;49.540;8.364;2022-11-15T03:21:33;10.80;99.90
12520;DHT22;6325;49.540;8.364;2022-11-15T03:24:03;11.50;99.90
12520;DHT22;6325;49.540;8.364;2022-11-15T03:26:33;11.20;99.90
12520;DHT22;6325;49.540;8.364;2022-11-15T03:29:06;11.20;99.90
12520;DHT22;6325;49.540;8.364;2022-11-15T03:31:38;11.30;99.90
12520;DHT22;6325;49.540;8.364;2022-11-15T03:34:23;11.00;99.90
12520;DHT22;6325;49.540;8.364;2022-11-15T03:36:52;11.00;99.90
12520;DHT22;6325;49.540;8.364;2022-11-15T03:39:20;11.30;99.90
12520;DHT22;6325;49.540;8.364;2022-11-15T03:41:50;11.30;99.90
12520;DHT22;6325;49.540;8.364;2022-11-15T03:44:28;11.30;99.90
12520;DHT22;6325;49.540;8.364;2022-11-15T03:47:02;11.30;99.90
12520;DHT22;6325;49.540;8.364;2022-11-15T03:49:33;11.40;99.90
12520;DHT22;6325;49.540;8.364;2022-11-15T03:52:02;11.20;99.90
12520;DHT22;6325;49.540;8.364;2022-11-15T03:54:29;11.40;99.90
12520;DHT22;6325;49.540;8.364;2022-11-15T03:56:56;11.50;99.90
12520;DHT22;6325;49.540;8.364;2022-11-15T03:59:23;11.30;99.90
12520;DHT22;6325;49.540;8.364;2022-11-15T04:01:50;11.50;99.90
12520;DHT22;6325;49.540;8.364;2022-11-15T04:04:17;11.30;99.90
12520;DHT22;6325;49.540;8.364;2022-11-15T04:06:46;11.20;99.90
12520;DHT22;6325;49.540;8.364;2022-11-15T04:09:13;11.00;99.90
12520;DHT22;6325;49.540;8.364;2022-11-15T04:11:41;11.70;99.90
12520;DHT22;6325;49.540;8.364;2022-11-15T04:14:08;11.30;99.90
12520;DHT22;6325;49.540;8.364;2022-11-15T04:16:35;10.90;99.90
12520;DHT22;6325;49.540;8.364;2022-11-15T04:19:01;10.60;99.90
12520;DHT22;6325;49.540;8.364;2022-11-15T04:21:49;11.60;99.90
12520;DHT22;6325;49.540;8.364;2022-11-15T04:24:34;11.90;99.90
12520;DHT22;6325;49.540;8.364;2022-11-15T04:27:01;11.10;99.90
12520;DHT22;6325;49.540;8.364;2022-11-15T04:29:28;11.30;99.90
12520;DHT22;6325;49.540;8.364;2022-11-15T04:32:05;11.90;99.90
12520;DHT22;6325;49.540;8.364;2022-11-15T04:34:33;11.30;99.90
12520;DHT22;6325;49.540;8.364;2022-11-15T04:37:02;11.50;99.90
12520;DHT22;6325;49.540;8.364;2022-11-15T04:39:42;11.10;99.90
12520;DHT22;6325;49.540;8.364;2022-11-15T04:42:10;11.80;99.90
12520;DHT22;6325;49.540;8.364;2022-11-15T04:44:37;11.40;99.90
12520;DHT22;6325;49.540;8.364;2022-11-15T04:47:04;11.40;99.90
12520;DHT22;6325;49.540;8.364;2022-11-15T04:49:31;11.30;99.90
12520;DHT22;6325;49.540;8.364;2022-11-15T04:51:58;11.10;99.90
12520;DHT22;6325;49.540;8.364;2022-11-15T04:54:27;11.20;99.90
12520;DHT22;6325;49.540;8.364;2022-11-15T04:56:54;11.30;99.90
12520;DHT22;6325;49.540;8.364;2022-11-15T04:59:21;11.70;99.90
12520;DHT22;6325;49.540;8.364;2022-11-15T05:01:48;11.20;99.90
12520;DHT22;6325;49.540;8.364;2022-11-15T05:04:14;11.80;99.90
12520;DHT22;6325;49.540;8.364;2022-11-15T05:06:48;11.40;99.90
12520;DHT22;6325;49.540;8.364;2022-11-15T05:09:16;11.40;99.90
12520;DHT22;6325;49.540;8.364;2022-11-15T05:11:45;11.50;99.90
12520;DHT22;6325;49.540;8.364;2022-11-15T05:14:13;11.20;99.90
12520;DHT22;6325;49.540;8.364;2022-11-15T05:16:40;11.30;99.90
12520;DHT22;6325;49.540;8.364;2022-11-15T05:19:07;11.30;99.90
12520;DHT22;6325;49.540;8.364;2022-11-15T05:21:35;11.10;99.90
12520;DHT22;6325;49.540;8.364;2022-11-15T05:24:02;11.00;99.90
12520;DHT22;6325;49.540;8.364;2022-11-15T05:26:29;11.10;99.90
12520;DHT22;6325;49.540;8.364;2022-11-15T05:28:58;10.80;99.90
12520;DHT22;6325;49.540;8.364;2022-11-15T05:31:26;11.60;99.90
12520;DHT22;6325;49.540;8.364;2022-11-15T05:33:55;10.60;99.90
12520;DHT22;6325;49.540;8.364;2022-11-15T05:36:29;10.90;99.90
12520;DHT22;6325;49.540;8.364;2022-11-15T05:38:57;10.40;99.90
12520;DHT22;6325;49.540;8.364;2022-11-15T05:41:29;11.10;99.90
12520;DHT22;6325;49.540;8.364;2022-11-15T05:44:00;10.80;99.90
12520;DHT22;6325;49.540;8.364;2022-11-15T05:46:28;11.00;99.90
12520;DHT22;6325;49.540;8.364;2022-11-15T05:48:56;11.70;99.90
12520;DHT22;6325;49.540;8.364;2022-11-15T05:51:24;11.60;99.90
12520;DHT22;6325;49.540;8.364;2022-11-15T05:53:56;10.60;99.90
12520;DHT22;6325;49.540;8.364;2022-11-15T05:56:23;10.60;99.90
12520;DHT22;6325;49.540;8.364;2022-11-15T05:58:52;10.80;99.90
12520;DHT22;6325;49.540;8.364;2022-11-15T06:01:21;11.00;99.90
12520;DHT22;6325;49.540;8.364;2022-11-15T06:03:48;11.00;99.90
12520;DHT22;6325;49.540;8.364;2022-11-15T06:06:15;11.00;99.90
12520;DHT22;6325;49.540;8.364;2022-11-15T06:08:41;11.00;99.90
12520;DHT22;6325;49.540;8.364;2022-11-15T06:11:08;10.90;99.90
12520;DHT22;6325;49.540;8.364;2022-11-15T06:13:35;10.90;99.90
12520;DHT22;6325;49.540;8.364;2022-11-15T06:16:02;11.10;99.90
12520;DHT22;6325;49.540;8.364;2022-11-15T06:18:33;11.10;99.90
12520;DHT22;6325;49.540;8.364;2022-11-15T06:21:00;11.00;99.90
12520;DHT22;6325;49.540;8.364;2022-11-15T06:23:28;10.70;99.90
12520;DHT22;6325;49.540;8.364;2022-11-15T06:25:57;10.30;99.90
12520;DHT22;6325;49.540;8.364;2022-11-15T06:28:24;10.70;99.90
12520;DHT22;6325;49.540;8.364;2022-11-15T06:30:51;10.70;99.90
12520;DHT22;6325;49.540;8.364;2022-11-15T06:33:18;10.70;99.90
12520;DHT22;6325;49.540;8.364;2022-11-15T06:35:47;10.40;99.90
12520;DHT22;6325;49.540;8.364;2022-11-15T06:38:14;10.10;99.90
12520;DHT22;6325;49.540;8.364;2022-11-15T06:40:41;11.10;99.90
12520;DHT22;6325;49.540;8.364;2022-11-15T06:43:09;11.20;99.90
12520;DHT22;6325;49.540;8.364;2022-11-15T06:45:36;10.60;99.90
12520;DHT22;6325;49.540;8.364;2022-11-15T06:48:03;10.50;99.90
12520;DHT22;6325;49.540;8.364;2022-11-15T06:50:31;10.40;99.90
12520;DHT22;6325;49.540;8.364;2022-11-15T06:53:02;10.60;99.90
12520;DHT22;6325;49.540;8.364;2022-11-15T06:55:30;10.50;99.90
12520;DHT22;6325;49.540;8.364;2022-11-15T06:57:57;10.30;99.90
12520;DHT22;6325;49.540;8.364;2022-11-15T07:00:24;10.70;99.90
12520;DHT22;6325;49.540;8.364;2022-11-15T07:02:50;10.40;99.90
12520;DHT22;6325;49.540;8.364;2022-11-15T07:05:18;10.20;99.90
12520;DHT22;6325;49.540;8.364;2022-11-15T07:07:51;10.60;99.90
12520;DHT22;6325;49.540;8.364;2022-11-15T07:10:20;10.90;99.90
12520;DHT22;6325;49.540;8.364;2022-11-15T07:12:49;11.00;99.90
12520;DHT22;6325;49.540;8.364;2022-11-15T07:15:17;10.60;99.90
12520;DHT22;6325;49.540;8.364;2022-11-15T07:17:44;10.70;99.90
12520;DHT22;6325;49.540;8.364;2022-11-15T07:20:12;11.50;99.90
12520;DHT22;6325;49.540;8.364;2022-11-15T07:22:39;11.40;99.90
12520;DHT22;6325;49.540;8.364;2022-11-15T07:25:07;10.90;99.90
12520;DHT22;6325;49.540;8.364;2022-11-15T07:27:36;10.90;99.90
12520;DHT22;6325;49.540;8.364;2022-11-15T07:30:04;10.30;99.90
12520;DHT22;6325;49.540;8.364;2022-11-15T07:32:31;10.50;99.90
12520;DHT22;6325;49.540;8.364;2022-11-15T07:34:58;11.20;99.90
12520;DHT22;6325;49.540;8.364;2022-11-15T07:37:25;11.30;99.90
12520;DHT22;6325;49.540;8.364;2022-11-15T07:39:52;11.00;99.90
12520;DHT22;6325;49.540;8.364;2022-11-15T07:42:19;11.10;99.90
12520;DHT22;6325;49.540;8.364;2022-11-15T07:45:06;10.90;99.90
12520;DHT22;6325;49.540;8.364;2022-11-15T07:47:33;11.30;99.90
12520;DHT22;6325;49.540;8.364;2022-11-15T07:50:00;11.60;99.90
12520;DHT22;6325;49.540;8.364;2022-11-15T07:52:27;11.80;99.90
12520;DHT22;6325;49.540;8.364;2022-11-15T07:54:54;11.20;99.90
12520;DHT22;6325;49.540;8.364;2022-11-15T07:57:20;11.60;99.90
12520;DHT22;6325;49.540;8.364;2022-11-15T07:59:47;11.40;99.90
12520;DHT22;6325;49.540;8.364;2022-11-15T08:02:16;11.50;99.90
12520;DHT22;6325;49.540;8.364;2022-11-15T08:04:43;11.90;99.90
12520;DHT22;6325;49.540;8.364;2022-11-15T08:07:10;11.40;99.90
12520;DHT22;6325;49.540;8.364;2022-11-15T08:09:37;10.90;99.90
12520;DHT22;6325;49.540;8.364;2022-11-15T08:12:04;11.30;99.90
12520;DHT22;6325;49.540;8.364;2022-11-15T08:14:31;11.70;99.90
12520;DHT22;6325;49.540;8.364;2022-11-15T08:16:58;11.60;99.90
12520;DHT22;6325;49.540;8.364;2022-11-15T08:19:26;11.60;99.90
12520;DHT22;6325;49.540;8.364;2022-11-15T08:21:53;11.50;99.90
12520;DHT22;6325;49.540;8.364;2022-11-15T08:24:20;11.40;99.90
12520;DHT22;6325;49.540;8.364;2022-11-15T08:26:48;11.40;99.90
12520;DHT22;6325;49.540;8.364;2022-11-15T08:29:15;10.90;99.90
12520;DHT22;6325;49.540;8.364;2022-11-15T08:31:43;11.30;99.90
12520;DHT22;6325;49.540;8.364;2022-11-15T08:34:09;11.00;99.90
12520;DHT22;6325;49.540;8.364;2022-11-15T08:36:38;11.50;99.90
12520;DHT22;6325;49.540;8.364;2022-11-15T08:39:05;11.80;99.90
12520;DHT22;6325;49.540;8.364;2022-11-15T08:41:35;11.70;99.90
12520;DHT22;6325;49.540;8.364;2022-11-15T08:44:03;11.40;99.90
12520;DHT22;6325;49.540;8.364;2022-11-15T08:46:30;11.50;99.90
12520;DHT22;6325;49.540;8.364;2022-11-15T08:48:57;11.50;99.90
12520;DHT22;6325;49.540;8.364;2022-11-15T08:51:26;11.40;99.90
12520;DHT22;6325;49.540;8.364;2022-11-15T08:53:54;11.50;99.90
12520;DHT22;6325;49.540;8.364;2022-11-15T08:56:21;12.00;99.90
12520;DHT22;6325;49.540;8.364;2022-11-15T08:58:48;11.60;99.90
12520;DHT22;6325;49.540;8.364;2022-11-15T09:01:17;11.90;99.90
12520;DHT22;6325;49.540;8.364;2022-11-15T09:03:45;11.80;99.90
12520;DHT22;6325;49.540;8.364;2022-11-15T09:06:16;12.30;99.90
12520;DHT22;6325;49.540;8.364;2022-11-15T09:08:43;11.70;99.90
12520;DHT22;6325;49.540;8.364;2022-11-15T09:11:12;11.80;99.90
12520;DHT22;6325;49.540;8.364;2022-11-15T09:13:40;11.90;99.90
12520;DHT22;6325;49.540;8.364;2022-11-15T09:16:07;11.80;99.90
12520;DHT22;6325;49.540;8.364;2022-11-15T09:18:34;11.90;99.90
12520;DHT22;6325;49.540;8.364;2022-11-15T09:21:01;12.40;99.90
12520;DHT22;6325;49.540;8.364;2022-11-15T09:23:30;12.50;99.90
12520;DHT22;6325;49.540;8.364;2022-11-15T09:26:01;12.00;99.90
12520;DHT22;6325;49.540;8.364;2022-11-15T09:28:36;11.50;99.90
12520;DHT22;6325;49.540;8.364;2022-11-15T09:31:13;12.00;99.90
12520;DHT22;6325;49.540;8.364;2022-11-15T09:33:40;12.50;99.90
12520;DHT22;6325;49.540;8.364;2022-11-15T09:36:10;13.00;99.90
12520;DHT22;6325;49.540;8.364;2022-11-15T09:38:37;12.40;99.90
12520;DHT22;6325;49.540;8.364;2022-11-15T09:44:17;12.60;99.90
12520;DHT22;6325;49.540;8.364;2022-11-15T09:46:54;12.10;99.90
12520;DHT22;6325;49.540;8.364;2022-11-15T09:49:24;12.20;99.90
12520;DHT22;6325;49.540;8.364;2022-11-15T09:51:53;11.50;99.90
12520;DHT22;6325;49.540;8.364;2022-11-15T09:54:27;12.30;99.90
12520;DHT22;6325;49.540;8.364;2022-11-15T09:56:56;12.10;99.90
12520;DHT22;6325;49.540;8.364;2022-11-15T09:59:44;12.30;99.90
12520;DHT22;6325;49.540;8.364;2022-11-15T10:02:26;13.00;99.90
12520;DHT22;6325;49.540;8.364;2022-11-15T10:04:54;12.40;99.90
12520;DHT22;6325;49.540;8.364;2022-11-15T10:07:25;12.40;99.90
12520;DHT22;6325;49.540;8.364;2022-11-15T10:09:56;12.60;99.90
12520;DHT22;6325;49.540;8.364;2022-11-15T10:12:27;12.10;99.90
12520;DHT22;6325;49.540;8.364;2022-11-15T10:15:00;12.80;99.90
12520;DHT22;6325;49.540;8.364;2022-11-15T10:17:48;12.90;99.90
12520;DHT22;6325;49.540;8.364;2022-11-15T10:20:21;11.80;99.90
12520;DHT22;6325;49.540;8.364;2022-11-15T10:22:50;12.80;99.90
12520;DHT22;6325;49.540;8.364;2022-11-15T10:25:20;12.70;99.90
12520;DHT22;6325;49.540;8.364;2022-11-15T10:27:53;12.90;99.90
12520;DHT22;6325;49.540;8.364;2022-11-15T10:30:22;12.40;99.90
12520;DHT22;6325;49.540;8.364;2022-11-15T10:32:49;12.70;99.90
12520;DHT22;6325;49.540;8.364;2022-11-15T10:35:23;12.50;99.90
12520;DHT22;6325;49.540;8.364;2022-11-15T10:37:50;12.40;99.90
12520;DHT22;6325;49.540;8.364;2022-11-15T10:40:20;12.80;99.90
12520;DHT22;6325;49.540;8.364;2022-11-15T10:42:48;12.90;99.90
12520;DHT22;6325;49.540;8.364;2022-11-15T10:45:28;12.50;99.90
12520;DHT22;6325;49.540;8.364;2022-11-15T10:48:20;12.20;99.90
12520;DHT22;6325;49.540;8.364;2022-11-15T10:50:49;12.90;99.90
12520;DHT22;6325;49.540;8.364;2022-11-15T10:53:22;12.60;99.90
12520;DHT22;6325;49.540;8.364;2022-11-15T10:55:51;12.30;99.90
12520;DHT22;6325;49.540;8.364;2022-11-15T10:58:23;12.60;99.90
12520;DHT22;6325;49.540;8.364;2022-11-15T11:00:54;13.00;99.90
12520;DHT22;6325;49.540;8.364;2022-11-15T11:03:33;12.80;99.90
12520;DHT22;6325;49.540;8.364;2022-11-15T11:06:08;12.60;99.90
12520;DHT22;6325;49.540;8.364;2022-11-15T11:08:35;12.80;99.90
12520;DHT22;6325;49.540;8.364;2022-11-15T11:11:03;13.40;99.90
12520;DHT22;6325;49.540;8.364;2022-11-15T11:13:32;13.00;99.90
12520;DHT22;6325;49.540;8.364;2022-11-15T11:16:21;13.20;99.90
12520;DHT22;6325;49.540;8.364;2022-11-15T11:18:57;13.10;99.90
12520;DHT22;6325;49.540;8.364;2022-11-15T11:21:36;13.20;99.90
12520;DHT22;6325;49.540;8.364;2022-11-15T11:24:11;13.30;99.90
12520;DHT22;6325;49.540;8.364;2022-11-15T11:26:44;13.30;99.90
12520;DHT22;6325;49.540;8.364;2022-11-15T11:29:21;13.70;99.90
12520;DHT22;6325;49.540;8.364;2022-11-15T11:31:57;13.60;99.90
12520;DHT22;6325;49.540;8.364;2022-11-15T11:34:37;13.60;99.90
12520;DHT22;6325;49.540;8.364;2022-11-15T11:37:13;13.70;99.90
12520;DHT22;6325;49.540;8.364;2022-11-15T11:39:48;13.80;99.90
12520;DHT22;6325;49.540;8.364;2022-11-15T11:42:24;13.80;99.90
12520;DHT22;6325;49.540;8.364;2022-11-15T11:45:00;13.60;99.90
12520;DHT22;6325;49.540;8.364;2022-11-15T11:47:37;13.90;99.90
12520;DHT22;6325;49.540;8.364;2022-11-15T11:50:13;14.40;99.90
12520;DHT22;6325;49.540;8.364;2022-11-15T11:52:49;13.80;99.90
12520;DHT22;6325;49.540;8.364;2022-11-15T11:55:21;14.20;99.90
12520;DHT22;6325;49.540;8.364;2022-11-15T11:57:53;14.30;99.90
12520;DHT22;6325;49.540;8.364;2022-11-15T12:00:26;13.60;99.90
12520;DHT22;6325;49.540;8.364;2022-11-15T12:03:04;14.10;99.90
12520;DHT22;6325;49.540;8.364;2022-11-15T12:05:36;14.20;99.90
12520;DHT22;6325;49.540;8.364;2022-11-15T12:08:15;14.10;99.90
12520;DHT22;6325;49.540;8.364;2022-11-15T12:10:47;13.70;99.90
12520;DHT22;6325;49.540;8.364;2022-11-15T12:13:19;14.80;99.90
12520;DHT22;6325;49.540;8.364;2022-11-15T12:15:55;14.50;99.90
12520;DHT22;6325;49.540;8.364;2022-11-15T12:18:24;14.20;99.90
12520;DHT22;6325;49.540;8.364;2022-11-15T12:20:54;14.40;99.90
12520;DHT22;6325;49.540;8.364;2022-11-15T12:23:26;14.80;99.90
12520;DHT22;6325;49.540;8.364;2022-11-15T12:26:00;13.90;99.90
12520;DHT22;6325;49.540;8.364;2022-11-15T12:28:41;14.50;99.90
12520;DHT22;6325;49.540;8.364;2022-11-15T12:31:18;14.40;99.90
12520;DHT22;6325;49.540;8.364;2022-11-15T12:33:58;14.60;99.90
12520;DHT22;6325;49.540;8.364;2022-11-15T12:36:41;14.00;99.90
12520;DHT22;6325;49.540;8.364;2022-11-15T12:39:12;14.30;99.90
12520;DHT22;6325;49.540;8.364;2022-11-15T12:41:44;14.40;99.90
12520;DHT22;6325;49.540;8.364;2022-11-15T12:44:55;14.40;99.90
12520;DHT22;6325;49.540;8.364;2022-11-15T12:47:25;13.90;99.90
12520;DHT22;6325;49.540;8.364;2022-11-15T12:49:54;14.80;99.90
12520;DHT22;6325;49.540;8.364;2022-11-15T12:52:21;14.10;99.90
12520;DHT22;6325;49.540;8.364;2022-11-15T12:54:55;14.30;99.90
12520;DHT22;6325;49.540;8.364;2022-11-15T12:57:34;14.20;99.90
12520;DHT22;6325;49.540;8.364;2022-11-15T13:03:22;14.40;99.90
12520;DHT22;6325;49.540;8.364;2022-11-15T13:06:08;14.30;99.90
12520;DHT22;6325;49.540;8.364;2022-11-15T13:08:50;14.00;99.90
12520;DHT22;6325;49.540;8.364;2022-11-15T13:11:46;14.80;99.90
12520;DHT22;6325;49.540;8.364;2022-11-15T13:14:41;14.30;99.90
12520;DHT22;6325;49.540;8.364;2022-11-15T13:17:33;14.30;99.90
12520;DHT22;6325;49.540;8.364;2022-11-15T13:20:23;14.60;99.90
12520;DHT22;6325;49.540;8.364;2022-11-15T13:23:01;14.50;99.90
12520;DHT22;6325;49.540;8.364;2022-11-15T13:28:44;14.50;99.90
12520;DHT22;6325;49.540;8.364;2022-11-15T13:31:24;14.50;99.90
12520;DHT22;6325;49.540;8.364;2022-11-15T13:34:01;15.00;99.90
12520;DHT22;6325;49.540;8.364;2022-11-15T13:36:37;14.40;99.90
12520;DHT22;6325;49.540;8.364;2022-11-15T13:39:23;14.50;99.90
12520;DHT22;6325;49.540;8.364;2022-11-15T13:41:56;15.20;99.90
12520;DHT22;6325;49.540;8.364;2022-11-15T13:44:27;14.50;99.90
12520;DHT22;6325;49.540;8.364;2022-11-15T13:47:05;14.60;99.90
12520;DHT22;6325;49.540;8.364;2022-11-15T13:49:36;14.50;99.90
12520;DHT22;6325;49.540;8.364;2022-11-15T13:52:19;14.50;99.90
12520;DHT22;6325;49.540;8.364;2022-11-15T13:55:03;14.50;99.90
12520;DHT22;6325;49.540;8.364;2022-11-15T13:57:42;14.70;99.90
12520;DHT22;6325;49.540;8.364;2022-11-15T14:00:35;14.60;99.90
12520;DHT22;6325;49.540;8.364;2022-11-15T14:03:08;14.20;99.90
12520;DHT22;6325;49.540;8.364;2022-11-15T14:05:42;13.60;99.90
12520;DHT22;6325;49.540;8.364;2022-11-15T14:08:22;13.90;99.90
12520;DHT22;6325;49.540;8.364;2022-11-15T14:11:09;14.20;99.90
12520;DHT22;6325;49.540;8.364;2022-11-15T14:13:38;14.20;99.90
12520;DHT22;6325;49.540;8.364;2022-11-15T14:16:18;14.20;99.90
12520;DHT22;6325;49.540;8.364;2022-11-15T14:18:52;13.90;99.90
12520;DHT22;6325;49.540;8.364;2022-11-15T14:21:23;14.10;99.90
12520;DHT22;6325;49.540;8.364;2022-11-15T14:24:13;14.00;99.90
12520;DHT22;6325;49.540;8.364;2022-11-15T14:26:47;13.70;99.90
12520;DHT22;6325;49.540;8.364;2022-11-15T14:29:27;14.50;99.90
12520;DHT22;6325;49.540;8.364;2022-11-15T14:32:10;14.10;99.90
12520;DHT22;6325;49.540;8.364;2022-11-15T14:34:41;14.20;99.90
12520;DHT22;6325;49.540;8.364;2022-11-15T14:37:23;13.80;99.90
12520;DHT22;6325;49.540;8.364;2022-11-15T14:39:53;14.00;99.90
12520;DHT22;6325;49.540;8.364;2022-11-15T14:42:28;14.10;99.90
12520;DHT22;6325;49.540;8.364;2022-11-15T14:44:58;14.00;99.90
12520;DHT22;6325;49.540;8.364;2022-11-15T14:47:29;13.80;99.90
12520;DHT22;6325;49.540;8.364;2022-11-15T14:49:59;13.90;99.90
12520;DHT22;6325;49.540;8.364;2022-11-15T14:52:28;13.60;99.90
12520;DHT22;6325;49.540;8.364;2022-11-15T14:55:00;14.30;99.90
12520;DHT22;6325;49.540;8.364;2022-11-15T14:57:30;13.90;99.90
12520;DHT22;6325;49.540;8.364;2022-11-15T15:00:00;14.00;99.90
12520;DHT22;6325;49.540;8.364;2022-11-15T15:02:28;13.50;99.90
12520;DHT22;6325;49.540;8.364;2022-11-15T15:04:56;13.50;99.90
12520;DHT22;6325;49.540;8.364;2022-11-15T15:07:27;13.40;99.90
12520;DHT22;6325;49.540;8.364;2022-11-15T15:09:54;14.00;99.90
12520;DHT22;6325;49.540;8.364;2022-11-15T15:12:23;14.20;99.90
12520;DHT22;6325;49.540;8.364;2022-11-15T15:14:53;13.70;99.90
12520;DHT22;6325;49.540;8.364;2022-11-15T15:17:21;13.70;99.90
12520;DHT22;6325;49.540;8.364;2022-11-15T15:19:50;13.90;99.90
12520;DHT22;6325;49.540;8.364;2022-11-15T15:22:19;13.90;99.90
12520;DHT22;6325;49.540;8.364;2022-11-15T15:24:51;13.70;99.90
12520;DHT22;6325;49.540;8.364;2022-11-15T15:27:19;13.70;99.90
12520;DHT22;6325;49.540;8.364;2022-11-15T15:29:46;13.70;99.90
12520;DHT22;6325;49.540;8.364;2022-11-15T15:32:15;13.50;99.90
12520;DHT22;6325;49.540;8.364;2022-11-15T15:34:42;13.40;99.90
12520;DHT22;6325;49.540;8.364;2022-11-15T15:40:12;13.40;99.90
12520;DHT22;6325;49.540;8.364;2022-11-15T15:42:43;13.60;99.90
12520;DHT22;6325;49.540;8.364;2022-11-15T15:45:10;13.80;99.90
12520;DHT22;6325;49.540;8.364;2022-11-15T15:47:48;13.50;99.90
12520;DHT22;6325;49.540;8.364;2022-11-15T15:50:26;13.60;99.90
12520;DHT22;6325;49.540;8.364;2022-11-15T15:53:00;13.80;99.90
12520;DHT22;6325;49.540;8.364;2022-11-15T15:55:33;13.50;99.90
12520;DHT22;6325;49.540;8.364;2022-11-15T15:58:06;13.20;99.90
12520;DHT22;6325;49.540;8.364;2022-11-15T16:00:35;14.10;99.90
12520;DHT22;6325;49.540;8.364;2022-11-15T16:03:09;12.90;99.90
12520;DHT22;6325;49.540;8.364;2022-11-15T16:05:43;13.70;99.90
12520;DHT22;6325;49.540;8.364;2022-11-15T16:08:21;13.20;99.90
12520;DHT22;6325;49.540;8.364;2022-11-15T16:10:49;13.80;99.90
12520;DHT22;6325;49.540;8.364;2022-11-15T16:13:16;13.00;99.90
12520;DHT22;6325;49.540;8.364;2022-11-15T16:15:44;13.30;99.90
12520;DHT22;6325;49.540;8.364;2022-11-15T16:18:16;13.30;99.90
12520;DHT22;6325;49.540;8.364;2022-11-15T16:20:47;13.40;99.90
12520;DHT22;6325;49.540;8.364;2022-11-15T16:23:22;13.90;99.90
12520;DHT22;6325;49.540;8.364;2022-11-15T16:25:53;13.00;99.90